Time;durP1;ratioP1;P1;durP2;ratioP2;P2;SDS_P1;SDS_P2;PMS_P1;PMS_P2;Temp;Humidity;BMP_temperature;BMP_pressure;BME280_temperature;BME280_humidity;BME280_pressure;Samples;Min_cycle;Max_cycle;Signal;HPM_P1;HPM_P2
2022/01/13 13:24:44;;;;;;;85.43;43.03;;;;;;;;;;686599;23;21499;-93
2022/01/13 13:27:11;;;;;;;85.20;39.90;;;;;;;;;;4905635;29;20071;-93
2022/01/13 13:29:37;;;;;;;96.75;44.35;;;;;;;;;;4940000;29;20042;-93
2022/01/13 13:32:03;;;;;;;115.72;50.35;;;;;;;;;;4940188;29;20023;-92
2022/01/13 13:34:30;;;;;;;101.50;48.45;;;;;;;;;;4923364;29;20020;-92
2022/01/13 13:36:56;;;;;;;85.35;41.47;;;;;;;;;;4923492;29;20361;-92
2022/01/13 13:39:23;;;;;;;87.63;44.00;;;;;;;;;;4939792;29;20119;-92
2022/01/13 13:41:53;;;;;;;90.45;45.78;;;;;;;;;;4940046;29;20043;-93
2022/01/13 13:44:32;;;;;;;71.95;37.35;;;;;;;;;;4922965;29;20034;-92
2022/01/13 13:50:02;;;;;;;74.57;37.65;;;;;;;;;;4940162;29;20112;-93
2022/01/13 13:52:28;;;;;;;76.78;38.17;;;;;;;;;;4940093;29;20036;-92
2022/01/13 13:54:54;;;;;;;78.43;39.78;;;;;;;;;;4940046;29;20043;-92
2022/01/13 13:57:26;;;;;;;70.95;36.58;;;;;;;;;;4923008;29;20034;-93
2022/01/13 13:59:55;;;;;;;83.20;41.58;;;;;;;;;;4939925;29;20068;-92
2022/01/13 14:02:29;;;;;;;73.88;39.20;;;;;;;;;;4939710;29;20106;-93
2022/01/13 14:04:56;;;;;;;74.93;35.83;;;;;;;;;;4939835;29;20023;-92
2022/01/13 14:07:27;;;;;;;72.95;37.10;;;;;;;;;;4923059;29;20318;-92
2022/01/13 14:09:58;;;;;;;71.78;37.55;;;;;;;;;;4939715;29;20024;-92
2022/01/13 14:12:29;;;;;;;78.32;38.38;;;;;;;;;;4940118;29;20347;-94
2022/01/13 14:14:55;;;;;;;78.45;39.47;;;;;;;;;;4939921;29;20024;-92
2022/01/13 14:20:29;;;;;;;90.18;43.83;;;;;;;;;;4940183;29;20074;-91
2022/01/13 14:22:55;;;;;;;93.90;44.58;;;;;;;;;;4926073;29;20034;-92
2022/01/13 14:25:21;;;;;;;98.95;48.17;;;;;;;;;;4943610;29;20037;-91
2022/01/13 14:27:59;;;;;;;112.43;50.72;;;;;;;;;;4926476;29;20131;-91
2022/01/13 14:39:26;;;;;;;139.55;62.60;;;;;;;;;;4982571;23;20066;-93
2022/01/13 14:41:52;;;;;;;136.68;56.92;;;;;;;;;;4943036;29;20031;-92
2022/01/13 14:44:24;;;;;;;122.45;52.97;;;;;;;;;;4941620;29;20028;-91
2022/01/13 14:46:52;;;;;;;135.18;58.65;;;;;;;;;;4943029;29;20055;-92
2022/01/13 14:49:18;;;;;;;213.02;83.55;;;;;;;;;;4941534;29;20109;-92
2022/01/13 14:51:47;;;;;;;291.33;104.65;;;;;;;;;;4941837;29;20059;-93
2022/01/13 14:54:14;;;;;;;321.15;115.57;;;;;;;;;;4942045;29;20031;-92
2022/01/13 14:56:40;;;;;;;303.60;118.57;;;;;;;;;;4941528;29;20036;-92
2022/01/13 14:59:06;;;;;;;278.15;112.18;;;;;;;;;;4941517;29;20370;-93
2022/01/13 15:01:33;;;;;;;241.30;102.40;;;;;;;;;;4941735;29;20118;-92
2022/01/13 15:03:59;;;;;;;175.65;76.95;;;;;;;;;;4942868;29;20038;-93
2022/01/13 15:06:25;;;;;;;172.38;77.40;;;;;;;;;;4941391;29;20040;-92
2022/01/13 15:08:52;;;;;;;172.00;73.70;;;;;;;;;;4941771;29;20067;-90
2022/01/13 15:11:18;;;;;;;199.93;83.50;;;;;;;;;;4942479;29;20028;-92
2022/01/13 15:13:47;;;;;;;193.77;90.18;;;;;;;;;;4942650;29;20032;-91
2022/01/13 15:16:13;;;;;;;166.80;76.85;;;;;;;;;;4942262;29;20027;-92
2022/01/13 15:18:39;;;;;;;143.95;67.97;;;;;;;;;;4925585;29;20446;-92
2022/01/13 15:21:06;;;;;;;117.95;58.50;;;;;;;;;;4925551;29;20036;-93
2022/01/13 15:23:32;;;;;;;122.93;61.65;;;;;;;;;;4925444;29;20154;-92
2022/01/13 15:25:59;;;;;;;146.70;65.68;;;;;;;;;;4942071;29;20427;-92
2022/01/13 15:28:25;;;;;;;177.15;77.45;;;;;;;;;;4942181;29;20131;-93
2022/01/13 15:30:51;;;;;;;188.00;80.53;;;;;;;;;;4942233;29;20019;-93
2022/01/13 15:33:18;;;;;;;138.73;63.17;;;;;;;;;;4925080;29;20414;-92
2022/01/13 15:35:47;;;;;;;137.60;62.20;;;;;;;;;;4925253;29;20315;-92
2022/01/13 15:38:14;;;;;;;177.50;74.90;;;;;;;;;;4925128;29;20075;-92
2022/01/13 15:40:41;;;;;;;170.98;70.43;;;;;;;;;;4925020;29;20030;-92
2022/01/13 15:43:07;;;;;;;229.82;84.35;;;;;;;;;;4942151;29;20047;-92
2022/01/13 15:45:33;;;;;;;219.82;89.38;;;;;;;;;;4925086;29;20426;-92
2022/01/13 15:47:59;;;;;;;141.95;64.43;;;;;;;;;;4941963;29;20110;-92
2022/01/13 15:50:25;;;;;;;139.45;65.03;;;;;;;;;;4924730;29;20507;-92
2022/01/13 15:52:52;;;;;;;155.15;70.63;;;;;;;;;;4925117;29;20031;-93
2022/01/13 15:55:18;;;;;;;163.80;72.18;;;;;;;;;;4925074;29;20019;-92
2022/01/13 15:57:46;;;;;;;142.98;63.47;;;;;;;;;;4941622;29;20032;-92
2022/01/13 16:00:14;;;;;;;129.23;59.15;;;;;;;;;;4925021;29;20040;-92
2022/01/13 16:02:42;;;;;;;132.65;61.03;;;;;;;;;;4925179;29;20034;-94
2022/01/13 16:05:09;;;;;;;115.30;54.80;;;;;;;;;;4941624;29;20037;-93
2022/01/13 16:07:35;;;;;;;138.45;64.18;;;;;;;;;;4941215;29;20047;-93
2022/01/13 16:10:02;;;;;;;116.43;56.13;;;;;;;;;;4924705;29;20032;-92
2022/01/13 16:12:32;;;;;;;110.47;54.35;;;;;;;;;;4924671;29;20430;-89
2022/01/13 16:20:38;;;;;;;137.57;67.07;;;;;;;;;;5004936;23;20060;-93
2022/01/13 16:23:04;;;;;;;133.85;64.20;;;;;;;;;;4919692;29;20028;-95
2022/01/13 16:25:30;;;;;;;147.13;73.07;;;;;;;;;;4919643;29;20106;-93
2022/01/13 16:27:56;;;;;;;146.88;75.72;;;;;;;;;;4940975;29;20419;-93
2022/01/13 16:30:23;;;;;;;131.88;67.97;;;;;;;;;;4924249;29;20032;-94
2022/01/13 16:32:50;;;;;;;119.68;64.32;;;;;;;;;;4940713;29;20024;-93
2022/01/13 16:35:21;;;;;;;117.55;62.40;;;;;;;;;;4940892;29;20027;-95
2022/01/13 16:37:49;;;;;;;150.40;68.85;;;;;;;;;;4940895;29;20035;-94
2022/01/13 16:40:17;;;;;;;109.20;53.67;;;;;;;;;;4940833;29;20407;-94
2022/01/13 23:08:14;;;;;;;72.50;36.53;;;;;;;;;;5072269;23;20510;-94
2022/01/13 23:10:40;;;;;;;72.72;37.47;;;;;;;;;;4926833;29;20064;-95
2022/01/13 23:13:06;;;;;;;73.57;37.08;;;;;;;;;;4907288;29;20028;-94
2022/01/13 23:24:06;;;;;;;67.00;34.80;;;;;;;;;;4944489;29;20047;-96
2022/01/13 23:32:02;;;;;;;76.68;36.92;;;;;;;;;;4943404;29;20039;-94
2022/01/13 23:40:03;;;;;;;73.03;37.83;;;;;;;;;;4946062;23;20053;-95
2022/01/13 23:42:29;;;;;;;73.20;36.33;;;;;;;;;;4904604;29;20056;-95
2022/01/13 23:44:55;;;;;;;66.18;34.75;;;;;;;;;;4905006;29;20028;-95
2022/01/13 23:47:21;;;;;;;67.22;35.80;;;;;;;;;;4891440;29;20048;-96
2022/01/13 23:49:52;;;;;;;69.88;36.08;;;;;;;;;;4888899;29;20024;-96
2022/01/13 23:52:19;;;;;;;70.70;35.45;;;;;;;;;;4888999;29;20024;-95
2022/01/13 23:54:46;;;;;;;73.90;36.08;;;;;;;;;;4904987;29;20353;-96
2022/01/13 23:57:12;;;;;;;76.28;38.55;;;;;;;;;;4906193;29;20332;-96
2022/01/13 23:59:39;;;;;;;71.50;36.42;;;;;;;;;;4904797;29;20037;-96
